Flugplatz Leuzendorf Segelflug (UL)

Hier findest Du alle Informationen zum Flugplatz Leuzendorf Segelflug (UL).

Informationen für Piloten zum Flugplatz Leuzendorf Segelflug

Hier findest Du alle relevanten Informationen, die Du als Pilot benötigst, um Leuzendorf Segelflug anzufliegen.

Flugplatz: Leuzendorf Segelflug ICAO-Code: UL Flugplatz
Frequenz Turm: 123.500 Mhz GAFOR Gebiet: 55
Frequenz Ground: 123.350 Mhz Mogas: nein
Platzrunde: S 2000 ft Landegebühr: -
Platzhöhe: Sunrise: 03:13 Uhr UTC
Pisten: 08/26 - 870 m x 25 m, GRAS Sunset: 19:31 Uhr UTC

Mitglieder, die in Leuzendorf Segelflug fliegen

Flugwetter am Flugplatz Leuzendorf Segelflug

Die METAR Information stammen aus EDDN (74.18 km entfernt).

METAR Code:
2022/06/26 19:20
EDDN 261920Z AUTO 11005KT CAVOK 26/13 Q1013 NOSIG

Flugschulen am Flugplatz Leuzendorf Segelflug

Am Flugplatz Leuzendorf Segelflug gibt es leider keine Flugschule.

Benachbarte Flugplätze und Flugschulen

Es gibt 24 weitere Flugplätze in einem Umkreis von 50 km um den Flugplatz Leuzendorf Segelflug.

Jetzt anmelden

Passwort vergessen

Umfrage Archiv

Sendet Ihr ADS-B und/oder FLARM?

Ja
83.2 %
Nein
16.8 %
Stimmen: 173 | Diskussion
Anzeige: Roland Aircraft
Statistik Alle Mitglieder

Aktuell sind 63 Besucher online, davon 1 Mitglied und 62 Gäste.


Mitglieder online:
Heli 

Anzeige: ULPower Aero Engines Anzeige: Pocket FMS